Terminal Aerodrome Forecast
Issued by NWS

Home | Current Version | Previous Version | Text Only | Print | Product List | Glossary Off
Versions: 1 2 3 4 5 6 7 8 9 10 11 12 13 14 15 16 17 18 19 20 21 22 23 24 25 26 27 28 29 30 31 32 33 34 35 36 37 38 39 40 41 42 43 44 45 46 47 48 49 50

000
FTUS43 KGRB 201100 RRA
TAFRHI
TAF
KRHI 201143Z 2012/2112 VRB03KT 6SM BR SCT005 OVC009
      TEMPO 2012/2014 BKN005
     FM201400 32005KT P6SM SCT009 OVC012
      TEMPO 2014/2016 OVC009
     FM201700 30005KT P6SM BKN030
     FM202100 VRB03KT P6SM SCT035
     FM210300 VRB02KT 4SM BR SCT035 SCT100=

USA.gov is the U.S. government's official web portal to all federal, state and local government web resources and services.